Andover, IA

9:27 PM CST on November 25, 2014 (GMT -0600)
Mayer Farm @ Eagle Point | Change Station
CLOSE
Current Station
Personal Weather Station
Location: Clinton, IA
Elevation: 745 ft
Nearby Weather Stations

Elev 745 ft 41.89 °N, 90.19 °W | Updated 37 seconds ago

Clear
Clear
17.4 °F
Feels Like 10 °F
N
5.0
Wind Variable Wind from SSE
Gusts 5.0 mph

Today
High -- | Low -- °F
--% Chance of Precip.
Yesterday
High -- | Low -- °F
Precip. -- in
7:02 AM 4:32 PM
Waxing Crescent, 16% visible
Pressure 30.16 in
Visibility 7.0 miles
Clouds Clear
Windchill 10 °F
Dew Point 15 °F
Humidity 91%
Rainfall 0.00 in
Snow Depth Not available.
UV 0 out of 12
Pollen .10 out of 12
Air Quality Not available.
Flu Activity Not available.
METAR KSFY 260315Z AUTO 00000KT 7SM CLR M11/M12 A3016 RMK AO2 T11091122

More Conditions Fewer Conditions

Pressure 30.16 in
Visibility 7.0 miles
Clouds Clear
Windchill 10 °F
Dew Point 15 °F
Humidity 91%
Rainfall 0.00 in
Snow Depth Not available.
UV 0 out of 12
Pollen .10 out of 12
Air Quality Not available.
Flu Activity Not available.
METAR KSFY 260315Z AUTO 00000KT 7SM CLR M11/M12 A3016 RMK AO2 T11091122

More Conditions Fewer Conditions

10-Day Weather Forecast

Almanac

Astronomy

Nov. 25, 2014 Rise Set
Actual Time
Civil Twilight
Nautical Twilight
Astronomical Twilight
Moon
Length of Visible Light
Length of Day
Tomorrow will be .
, % of the Moon is Illuminated

Today's Extremes

State Highs State Lows

Community

WunderPhotos

Upload Photos

1,773,673 photos uploaded!

WunderBlogs® & News

Nearby

Air Quality

  Air Quality AQ Index Pollutant
Not available.

Snow Depth

Station Depth Elevation

Earthquake Activity

City Distance Mag. Time & Date
Minimum magnitude displayed is 2.5.

Coastal Water Temperatures

Place Temperature

Nearby Weather Stations